createdAt,value
2023-05-22T00:00:21.951Z,10.20
2023-05-22T00:02:50.596Z,12.80
2023-05-22T00:05:18.306Z,11.30
2023-05-22T00:07:45.990Z,12.52
2023-05-22T00:10:12.553Z,11.00
2023-05-22T00:12:39.236Z,12.05
2023-05-22T00:15:06.529Z,11.65
2023-05-22T00:17:34.060Z,12.70
2023-05-22T00:20:10.939Z,10.85
2023-05-22T00:22:37.587Z,12.15
2023-05-22T00:25:05.564Z,12.13
2023-05-22T00:27:32.889Z,11.63
2023-05-22T00:29:59.885Z,12.50
2023-05-22T00:32:27.044Z,12.27
2023-05-22T00:34:53.704Z,11.40
2023-05-22T00:37:20.311Z,11.55
2023-05-22T00:39:46.892Z,12.27
2023-05-22T00:42:13.678Z,13.60
2023-05-22T00:44:40.212Z,12.63
2023-05-22T00:47:07.907Z,13.02
2023-05-22T00:49:34.334Z,12.20
2023-05-22T00:52:01.414Z,12.45
2023-05-22T00:54:30.503Z,12.98
2023-05-22T00:56:57.361Z,13.27
2023-05-22T00:59:24.119Z,12.05
2023-05-22T01:01:51.202Z,12.02
2023-05-22T01:04:18.515Z,13.35
2023-05-22T01:06:46.401Z,12.48
2023-05-22T01:09:14.668Z,12.90
2023-05-22T01:12:19.565Z,11.75
2023-05-22T01:14:57.855Z,12.48
2023-05-22T01:17:47.652Z,11.30
2023-05-22T01:20:36.636Z,13.80
2023-05-22T01:23:50.004Z,13.45
2023-05-22T01:26:54.017Z,12.70
2023-05-22T01:29:44.286Z,12.38
2023-05-22T01:32:14.403Z,11.85
2023-05-22T01:34:44.998Z,11.75
2023-05-22T01:37:13.272Z,12.70
2023-05-22T01:39:40.353Z,12.77
2023-05-22T01:42:08.404Z,12.18
2023-05-22T01:44:34.806Z,12.65
2023-05-22T01:47:05.023Z,13.95
2023-05-22T01:49:35.978Z,12.90
2023-05-22T01:52:18.767Z,12.70
2023-05-22T01:55:13.319Z,12.93
2023-05-22T01:57:59.460Z,13.32
2023-05-22T02:00:28.193Z,13.15
2023-05-22T02:03:00.464Z,13.05
2023-05-22T02:05:29.727Z,13.27
2023-05-22T02:08:01.214Z,13.38
2023-05-22T02:10:29.319Z,12.35
2023-05-22T02:12:56.317Z,13.02
2023-05-22T02:15:23.145Z,13.15
2023-05-22T02:17:49.646Z,13.15
2023-05-22T02:20:16.646Z,12.32
2023-05-22T02:22:45.034Z,13.32
2023-05-22T02:25:14.361Z,12.40
2023-05-22T02:27:42.833Z,13.32
2023-05-22T02:30:10.837Z,13.02
2023-05-22T02:32:39.358Z,12.15
2023-05-22T02:35:06.664Z,13.25
2023-05-22T02:37:33.096Z,14.20
2023-05-22T02:39:59.640Z,13.55
2023-05-22T02:42:27.927Z,13.25
2023-05-22T02:44:54.460Z,12.90
2023-05-22T02:47:21.034Z,13.20
2023-05-22T02:49:47.587Z,13.65
2023-05-22T02:52:14.749Z,15.35
2023-05-22T02:54:41.819Z,14.57
2023-05-22T02:57:08.338Z,12.48
2023-05-22T02:59:36.717Z,15.38
2023-05-22T03:02:03.609Z,14.70
2023-05-22T03:04:30.113Z,13.85
2023-05-22T03:06:56.566Z,13.63
2023-05-22T03:09:23.236Z,15.05
2023-05-22T03:11:50.692Z,14.93
2023-05-22T03:14:17.129Z,14.13
2023-05-22T03:16:43.617Z,14.13
2023-05-22T03:19:16.801Z,15.32
2023-05-22T03:21:44.449Z,13.57
2023-05-22T03:24:12.529Z,13.65
2023-05-22T03:26:39.490Z,13.88
2023-05-22T03:29:08.775Z,12.32
2023-05-22T03:31:37.014Z,16.02
2023-05-22T03:34:12.909Z,12.68
2023-05-22T03:36:41.253Z,13.77
2023-05-22T03:39:07.732Z,14.15
2023-05-22T03:41:39.219Z,12.63
2023-05-22T03:44:06.744Z,14.02
2023-05-22T03:46:33.613Z,14.68
2023-05-22T03:49:00.048Z,14.15
2023-05-22T03:51:26.466Z,13.85
2023-05-22T03:53:53.586Z,14.48
2023-05-22T03:56:20.060Z,13.98
2023-05-22T03:58:48.121Z,14.23
2023-05-22T04:01:16.805Z,14.80
2023-05-22T04:03:43.615Z,13.05
2023-05-22T04:06:10.859Z,14.40
2023-05-22T04:08:37.311Z,13.27
2023-05-22T04:11:05.313Z,13.48
2023-05-22T04:13:33.002Z,13.85
2023-05-22T04:16:01.855Z,14.93
2023-05-22T04:18:28.476Z,13.43
2023-05-22T04:20:57.395Z,15.73
2023-05-22T04:23:23.973Z,13.50
2023-05-22T04:25:50.612Z,15.10
2023-05-22T04:28:22.252Z,14.63
2023-05-22T04:30:49.288Z,14.75
2023-05-22T04:33:18.025Z,13.07
2023-05-22T04:35:44.630Z,15.18
2023-05-22T04:38:11.186Z,15.50
2023-05-22T04:40:38.098Z,15.55
2023-05-22T04:43:04.853Z,14.82
2023-05-22T04:45:32.804Z,13.98
2023-05-22T04:48:02.326Z,15.68
2023-05-22T04:50:32.618Z,16.25
2023-05-22T04:52:59.829Z,15.50
2023-05-22T04:55:26.688Z,15.02
2023-05-22T04:57:53.520Z,15.40
2023-05-22T05:00:20.561Z,14.48
2023-05-22T05:02:47.155Z,16.17
2023-05-22T05:05:13.728Z,14.63
2023-05-22T05:07:40.221Z,14.93
2023-05-22T05:10:07.896Z,14.80
2023-05-22T05:12:34.362Z,15.50
2023-05-22T05:15:00.964Z,14.73
2023-05-22T05:17:27.680Z,14.93
2023-05-22T05:19:54.350Z,16.75
2023-05-22T05:22:20.792Z,16.02
2023-05-22T05:24:47.276Z,16.60
2023-05-22T05:27:14.027Z,15.10
2023-05-22T05:29:41.167Z,15.82
2023-05-22T05:32:18.906Z,15.57
2023-05-22T05:34:50.024Z,15.52
2023-05-22T05:37:21.281Z,15.43
2023-05-22T05:39:48.476Z,15.70
2023-05-22T05:42:15.235Z,15.02
2023-05-22T05:44:42.230Z,14.90
2023-05-22T05:47:08.851Z,16.38
2023-05-22T05:49:36.048Z,14.90
2023-05-22T05:52:02.956Z,16.05
2023-05-22T05:54:30.197Z,16.55
2023-05-22T05:57:01.585Z,15.63
2023-05-22T05:59:28.864Z,15.15
2023-05-22T06:02:27.428Z,16.27
2023-05-22T06:04:58.899Z,16.33
2023-05-22T06:07:28.443Z,16.00
2023-05-22T06:09:54.993Z,16.42
2023-05-22T06:12:35.569Z,17.60
2023-05-22T06:15:02.080Z,16.80
2023-05-22T06:17:28.626Z,16.85
2023-05-22T06:19:55.370Z,17.42
2023-05-22T06:22:21.895Z,17.45
2023-05-22T06:24:50.096Z,15.60
2023-05-22T06:27:22.524Z,17.45
2023-05-22T06:29:49.291Z,16.88
2023-05-22T06:32:16.636Z,16.17
2023-05-22T06:34:46.689Z,17.98
2023-05-22T06:37:14.698Z,20.27
2023-05-22T06:39:43.301Z,15.48
2023-05-22T06:42:13.218Z,17.15
2023-05-22T06:45:11.495Z,16.15
2023-05-22T06:47:47.318Z,14.85
2023-05-22T06:50:15.054Z,17.80
2023-05-22T06:52:41.905Z,18.48
2023-05-22T06:55:10.791Z,15.07
2023-05-22T06:57:49.550Z,16.42
2023-05-22T07:00:19.090Z,15.25
2023-05-22T07:03:06.762Z,14.27
2023-05-22T07:05:41.715Z,14.88
2023-05-22T07:08:08.457Z,13.70
2023-05-22T07:10:35.002Z,13.43
2023-05-22T07:13:02.078Z,16.13
2023-05-22T07:15:29.962Z,13.82
2023-05-22T07:17:58.278Z,14.68
2023-05-22T07:20:26.146Z,14.55
2023-05-22T07:23:11.497Z,14.30
2023-05-22T07:25:38.397Z,14.18
2023-05-22T07:28:08.730Z,13.90
2023-05-22T07:30:40.342Z,14.13
2023-05-22T07:33:07.340Z,14.43
2023-05-22T07:35:34.981Z,13.27
2023-05-22T07:38:01.533Z,14.57
2023-05-22T07:40:28.253Z,15.23
2023-05-22T07:42:55.034Z,14.55
2023-05-22T07:45:21.735Z,12.80
2023-05-22T07:47:48.307Z,13.93
2023-05-22T07:50:14.848Z,14.65
2023-05-22T07:52:44.667Z,13.75
2023-05-22T07:55:11.521Z,13.88
2023-05-22T07:57:40.597Z,14.73
2023-05-22T08:00:16.919Z,13.07
2023-05-22T08:02:43.604Z,14.32
2023-05-22T08:05:10.623Z,13.70
2023-05-22T08:07:37.238Z,14.02
2023-05-22T08:10:07.759Z,14.13
2023-05-22T08:12:34.740Z,12.88
2023-05-22T08:15:01.216Z,14.88
2023-05-22T08:17:27.671Z,14.05
2023-05-22T08:19:54.278Z,14.90
2023-05-22T08:22:21.109Z,14.65
2023-05-22T08:24:47.592Z,13.55
2023-05-22T08:27:14.143Z,14.10
2023-05-22T08:29:40.650Z,13.55
2023-05-22T08:32:07.570Z,14.18
2023-05-22T08:34:35.559Z,14.27
2023-05-22T08:37:02.101Z,12.13
2023-05-22T08:39:28.947Z,15.45
2023-05-22T08:41:55.988Z,14.00
2023-05-22T08:44:22.521Z,14.30
2023-05-22T08:46:51.781Z,13.73
2023-05-22T08:49:21.805Z,13.07
2023-05-22T08:51:56.032Z,14.55
2023-05-22T08:54:26.427Z,13.73
2023-05-22T08:56:57.096Z,14.32
2023-05-22T08:59:24.733Z,14.93
2023-05-22T09:01:52.309Z,14.43
2023-05-22T09:04:22.993Z,13.88
2023-05-22T09:06:49.744Z,14.18
2023-05-22T09:09:16.220Z,15.68
2023-05-22T09:11:42.760Z,14.35
2023-05-22T09:14:12.439Z,13.75
2023-05-22T09:16:51.697Z,14.02
2023-05-22T09:19:18.544Z,13.80
2023-05-22T09:21:45.017Z,13.48
2023-05-22T09:24:11.854Z,14.38
2023-05-22T09:26:39.122Z,14.90
2023-05-22T09:29:09.210Z,14.27
2023-05-22T09:31:43.226Z,14.07
2023-05-22T09:34:13.996Z,14.25
2023-05-22T09:36:41.544Z,14.82
2023-05-22T09:39:07.981Z,13.32
2023-05-22T09:41:36.511Z,13.98
2023-05-22T09:44:14.308Z,15.00
2023-05-22T09:46:47.729Z,15.13
2023-05-22T09:49:16.820Z,14.55
2023-05-22T09:51:47.954Z,13.82
2023-05-22T09:54:17.289Z,13.50
2023-05-22T09:56:44.592Z,13.65
2023-05-22T09:59:13.883Z,13.82
2023-05-22T10:01:42.373Z,14.00
2023-05-22T10:04:13.913Z,13.27
2023-05-22T10:06:42.887Z,15.02
2023-05-22T10:09:19.561Z,14.07
2023-05-22T10:11:47.241Z,15.43
2023-05-22T10:14:14.789Z,16.88
2023-05-22T10:16:44.882Z,14.38
2023-05-22T10:19:12.857Z,15.05
2023-05-22T10:21:41.454Z,14.80
2023-05-22T10:24:10.025Z,13.32
2023-05-22T10:26:38.572Z,14.32
2023-05-22T10:29:26.607Z,14.23
2023-05-22T10:32:08.426Z,14.02
2023-05-22T10:34:47.341Z,15.13
2023-05-22T10:37:28.986Z,13.27
2023-05-22T10:40:07.445Z,12.55
2023-05-22T10:42:34.517Z,13.77
2023-05-22T10:45:01.629Z,14.10
2023-05-22T10:47:28.186Z,15.15
2023-05-22T10:50:11.883Z,15.23
2023-05-22T10:52:39.641Z,16.55
2023-05-22T10:55:08.618Z,17.35
2023-05-22T10:57:37.374Z,17.23
2023-05-22T11:00:12.035Z,16.05
2023-05-22T11:02:41.193Z,16.70
2023-05-22T11:05:13.872Z,17.48
2023-05-22T11:07:41.327Z,17.50
2023-05-22T11:10:08.189Z,16.05
2023-05-22T11:12:34.626Z,15.13
2023-05-22T11:15:07.112Z,17.98
2023-05-22T11:17:46.489Z,18.17
2023-05-22T11:20:18.171Z,16.48
2023-05-22T11:22:56.689Z,17.30
2023-05-22T11:25:24.213Z,15.93
2023-05-22T11:27:52.903Z,17.30
2023-05-22T11:30:20.300Z,17.52
2023-05-22T11:32:48.059Z,16.83
2023-05-22T11:35:22.117Z,16.58
2023-05-22T11:37:49.811Z,17.45
2023-05-22T11:40:26.534Z,16.98
2023-05-22T11:42:53.842Z,16.05
2023-05-22T11:45:21.259Z,16.55
2023-05-22T11:47:48.634Z,17.85
2023-05-22T11:50:22.660Z,15.43
2023-05-22T11:52:54.065Z,18.08
2023-05-22T11:55:20.581Z,16.42
2023-05-22T11:57:47.951Z,16.58
2023-05-22T12:00:15.058Z,16.63
2023-05-22T12:02:47.557Z,16.60
2023-05-22T12:05:15.805Z,16.10
2023-05-22T12:07:42.862Z,15.80
2023-05-22T12:10:10.933Z,15.52
2023-05-22T12:12:37.864Z,16.70
2023-05-22T12:15:08.041Z,16.67
2023-05-22T12:17:38.036Z,15.27
2023-05-22T12:20:06.093Z,15.20
2023-05-22T12:22:32.625Z,16.00
2023-05-22T12:24:59.125Z,15.07
2023-05-22T12:27:32.713Z,16.35
2023-05-22T12:30:08.241Z,15.20
2023-05-22T12:32:34.788Z,15.10
2023-05-22T12:35:01.256Z,15.80
2023-05-22T12:37:28.305Z,15.93
2023-05-22T12:39:59.880Z,16.35
2023-05-22T12:42:27.254Z,16.95
2023-05-22T12:44:55.335Z,16.60
2023-05-22T12:47:23.440Z,15.20
2023-05-22T12:49:49.934Z,14.70
2023-05-22T12:52:16.696Z,15.48
2023-05-22T12:54:43.182Z,14.00
2023-05-22T12:57:09.741Z,15.15
2023-05-22T12:59:37.233Z,15.80
2023-05-22T13:02:05.430Z,15.88
2023-05-22T13:04:32.185Z,14.40
2023-05-22T13:06:58.772Z,15.20
2023-05-22T13:09:25.425Z,15.45
2023-05-22T13:11:52.079Z,14.88
2023-05-22T13:14:18.622Z,16.75
2023-05-22T13:16:45.125Z,14.30
2023-05-22T13:19:11.656Z,15.15
2023-05-22T13:21:38.177Z,14.48
2023-05-22T13:24:04.736Z,14.90
2023-05-22T13:26:31.230Z,14.95
2023-05-22T13:28:57.668Z,14.90
2023-05-22T13:31:24.168Z,15.65
2023-05-22T13:33:50.616Z,13.93
2023-05-22T13:36:17.978Z,13.75
2023-05-22T13:38:44.472Z,15.10
2023-05-22T13:41:11.475Z,15.38
2023-05-22T13:43:38.083Z,13.93
2023-05-22T13:46:04.841Z,13.25
2023-05-22T13:48:31.389Z,11.65
2023-05-22T13:50:57.859Z,13.93
2023-05-22T13:53:24.316Z,13.55
2023-05-22T13:55:50.898Z,13.13
2023-05-22T13:58:17.334Z,13.45
2023-05-22T14:00:43.810Z,13.13
2023-05-22T14:03:11.607Z,14.45
2023-05-22T14:05:38.567Z,13.15
2023-05-22T14:08:05.259Z,14.35
2023-05-22T14:10:31.995Z,14.55
2023-05-22T14:12:58.388Z,15.18
2023-05-22T14:15:24.865Z,14.50
2023-05-22T14:17:51.312Z,13.75
2023-05-22T14:20:18.012Z,14.93
2023-05-22T14:22:56.478Z,14.95
2023-05-22T14:25:23.414Z,15.57
2023-05-22T14:27:49.852Z,14.82
2023-05-22T14:30:16.522Z,15.88
2023-05-22T14:32:43.346Z,15.38
2023-05-22T14:35:10.058Z,13.25
2023-05-22T14:37:36.697Z,14.65
2023-05-22T14:40:03.324Z,14.77
2023-05-22T14:42:29.738Z,14.27
2023-05-22T14:44:56.291Z,14.85
2023-05-22T14:47:22.724Z,13.27
2023-05-22T14:49:49.150Z,13.52
2023-05-22T14:52:15.584Z,12.40
2023-05-22T14:54:43.169Z,12.18
2023-05-22T14:57:09.678Z,11.88
2023-05-22T14:59:36.202Z,9.77
2023-05-22T15:02:02.816Z,10.32
2023-05-22T15:04:29.692Z,9.70
2023-05-22T15:06:56.200Z,10.88
2023-05-22T15:09:22.653Z,10.52
2023-05-22T15:11:50.589Z,9.73
2023-05-22T15:14:17.479Z,11.70
2023-05-22T15:16:44.057Z,11.15
2023-05-22T15:19:10.796Z,11.65
2023-05-22T15:21:37.257Z,13.52
2023-05-22T15:24:03.982Z,11.55
2023-05-22T15:26:30.474Z,11.48
2023-05-22T15:29:01.135Z,12.85
2023-05-22T15:31:28.624Z,11.77
2023-05-22T15:33:55.509Z,14.77
2023-05-22T15:36:22.560Z,13.82
2023-05-22T15:38:49.325Z,13.00
2023-05-22T15:41:15.822Z,14.50
2023-05-22T15:43:42.246Z,14.25
2023-05-22T15:46:10.389Z,12.57
2023-05-22T15:48:36.870Z,11.25
2023-05-22T15:51:03.518Z,9.93
2023-05-22T15:53:29.940Z,9.38
2023-05-22T15:55:56.371Z,7.70
2023-05-22T15:58:22.756Z,8.65
2023-05-22T16:00:49.270Z,9.10
2023-05-22T16:03:16.838Z,9.48
2023-05-22T16:05:45.524Z,10.18
2023-05-22T16:08:12.196Z,9.40
2023-05-22T16:10:41.456Z,11.20
2023-05-22T16:13:10.375Z,14.73
2023-05-22T16:15:39.850Z,16.25
2023-05-22T16:18:07.280Z,14.93
2023-05-22T16:20:35.294Z,17.88
2023-05-22T16:23:02.065Z,17.67
2023-05-22T16:25:28.750Z,19.45
2023-05-22T16:27:55.167Z,19.05
2023-05-22T16:30:21.653Z,17.45
2023-05-22T16:32:48.527Z,17.02
2023-05-22T16:35:15.933Z,17.90
2023-05-22T16:37:42.408Z,14.30
2023-05-22T16:40:09.395Z,13.00
2023-05-22T16:42:36.507Z,14.27
2023-05-22T16:45:04.275Z,13.40
2023-05-22T16:47:30.677Z,11.55
2023-05-22T16:49:57.099Z,11.68
2023-05-22T16:52:25.524Z,10.60
2023-05-22T16:54:52.549Z,11.75
2023-05-22T16:57:19.588Z,12.68
2023-05-22T16:59:46.432Z,13.52
2023-05-22T17:02:13.488Z,15.25
2023-05-22T17:04:40.905Z,15.07
2023-05-22T17:07:07.439Z,14.07
2023-05-22T17:09:33.888Z,14.95
2023-05-22T17:12:01.104Z,16.73
2023-05-22T17:14:27.573Z,16.33
2023-05-22T17:16:55.082Z,18.63
2023-05-22T17:19:21.650Z,20.20
2023-05-22T17:21:48.443Z,19.48
2023-05-22T17:24:15.087Z,19.52
2023-05-22T17:26:41.633Z,18.33
2023-05-22T17:29:09.259Z,20.38
2023-05-22T17:31:38.910Z,22.08
2023-05-22T17:34:05.848Z,22.63
2023-05-22T17:36:32.464Z,23.52
2023-05-22T17:38:59.717Z,21.63
2023-05-22T17:41:26.384Z,18.48
2023-05-22T17:43:54.525Z,22.50
2023-05-22T17:46:21.040Z,20.52
2023-05-22T17:48:47.611Z,18.75
2023-05-22T17:51:14.813Z,18.35
2023-05-22T17:53:41.447Z,18.08
2023-05-22T17:56:07.930Z,19.45
2023-05-22T17:58:34.350Z,18.10
2023-05-22T18:01:00.951Z,20.42
2023-05-22T18:03:27.629Z,17.85
2023-05-22T18:05:54.358Z,16.77
2023-05-22T18:08:21.336Z,16.98
2023-05-22T18:10:49.026Z,19.55
2023-05-22T18:13:15.682Z,18.55
2023-05-22T18:15:42.175Z,22.67
2023-05-22T18:18:10.679Z,18.02
2023-05-22T18:20:38.765Z,18.55
2023-05-22T18:23:05.612Z,19.10
2023-05-22T18:25:32.126Z,17.80
2023-05-22T18:27:58.584Z,18.77
2023-05-22T18:30:25.078Z,17.63
2023-05-22T18:32:51.690Z,21.73
2023-05-22T18:35:18.255Z,17.80
2023-05-22T18:37:44.838Z,17.67
2023-05-22T18:40:11.867Z,20.92
2023-05-22T18:42:38.765Z,18.55
2023-05-22T18:45:06.548Z,19.33
2023-05-22T18:47:33.230Z,19.45
2023-05-22T18:49:59.783Z,17.48
2023-05-22T18:52:26.284Z,17.20
2023-05-22T18:54:52.723Z,16.92
2023-05-22T18:57:19.194Z,17.05
2023-05-22T18:59:46.177Z,16.98
2023-05-22T19:02:12.691Z,17.50
2023-05-22T19:04:39.304Z,19.13
2023-05-22T19:07:05.849Z,16.48
2023-05-22T19:09:32.267Z,17.73
2023-05-22T19:11:58.734Z,16.83
2023-05-22T19:14:25.267Z,18.45
2023-05-22T19:16:51.832Z,18.23
2023-05-22T19:19:18.242Z,18.17
2023-05-22T19:21:44.805Z,18.52
2023-05-22T19:24:11.309Z,19.63
2023-05-22T19:26:37.790Z,21.10
2023-05-22T19:29:04.228Z,20.10
2023-05-22T19:31:30.892Z,20.48
2023-05-22T19:33:57.483Z,20.63
2023-05-22T19:36:24.030Z,20.42
2023-05-22T19:38:53.124Z,19.25
2023-05-22T19:41:20.101Z,19.38
2023-05-22T19:43:46.606Z,24.33
2023-05-22T19:46:13.100Z,24.25
2023-05-22T19:48:39.592Z,28.27
2023-05-22T19:51:06.930Z,27.55
2023-05-22T19:53:34.237Z,31.20
2023-05-22T19:56:04.012Z,32.40
2023-05-22T19:58:30.490Z,32.92
2023-05-22T20:00:56.973Z,33.55
2023-05-22T20:03:24.190Z,30.27
2023-05-22T20:05:52.536Z,30.80
2023-05-22T20:08:21.562Z,31.17
2023-05-22T20:10:48.372Z,35.47
2023-05-22T20:13:14.804Z,35.88
2023-05-22T20:15:42.557Z,39.10
2023-05-22T20:18:10.527Z,37.72
2023-05-22T20:20:37.057Z,44.40
2023-05-22T20:23:03.505Z,44.47
2023-05-22T20:25:30.059Z,46.22
2023-05-22T20:27:56.506Z,47.97
2023-05-22T20:30:23.056Z,48.15
2023-05-22T20:32:49.539Z,48.10
2023-05-22T20:35:20.032Z,47.25
2023-05-22T20:37:46.558Z,52.03
2023-05-22T20:40:14.078Z,49.15
2023-05-22T20:42:42.448Z,49.50
2023-05-22T20:45:12.820Z,48.83
2023-05-22T20:47:40.898Z,49.17
2023-05-22T20:50:08.840Z,48.33
2023-05-22T20:52:36.936Z,48.40
2023-05-22T20:55:04.035Z,48.03
2023-05-22T20:57:30.462Z,48.53
2023-05-22T20:59:57.332Z,45.55
2023-05-22T21:02:24.191Z,50.80
2023-05-22T21:04:50.742Z,48.15
2023-05-22T21:07:18.047Z,50.42
2023-05-22T21:09:44.568Z,49.95
2023-05-22T21:12:11.188Z,52.45
2023-05-22T21:14:37.610Z,53.38
2023-05-22T21:17:04.129Z,54.00
2023-05-22T21:19:31.071Z,51.38
2023-05-22T21:21:57.621Z,50.20
2023-05-22T21:24:24.111Z,50.22
2023-05-22T21:26:50.562Z,46.80
2023-05-22T21:29:17.018Z,47.58
2023-05-22T21:31:43.593Z,53.83
2023-05-22T21:34:10.170Z,51.20
2023-05-22T21:36:36.668Z,53.83
2023-05-22T21:39:03.715Z,51.80
2023-05-22T21:41:30.574Z,54.80
2023-05-22T21:44:06.546Z,56.20
2023-05-22T21:46:39.244Z,53.47
2023-05-22T21:49:09.389Z,51.78
2023-05-22T21:51:36.026Z,51.60
2023-05-22T21:54:02.651Z,55.42
2023-05-22T21:56:29.156Z,50.00
2023-05-22T21:58:55.634Z,51.88
2023-05-22T22:01:23.184Z,50.42
2023-05-22T22:03:49.680Z,45.67
2023-05-22T22:06:16.208Z,48.85
2023-05-22T22:08:42.753Z,48.75
2023-05-22T22:11:09.216Z,49.05
2023-05-22T22:13:36.447Z,46.67
2023-05-22T22:16:02.932Z,44.08
2023-05-22T22:18:33.310Z,46.25
2023-05-22T22:21:02.118Z,44.42
2023-05-22T22:23:29.317Z,44.40
2023-05-22T22:25:56.053Z,45.67
2023-05-22T22:28:22.618Z,47.90
2023-05-22T22:30:49.140Z,44.40
2023-05-22T22:33:15.650Z,45.67
2023-05-22T22:35:42.537Z,47.55
2023-05-22T22:38:09.095Z,45.00
2023-05-22T22:40:35.540Z,46.33
2023-05-22T22:43:02.006Z,42.42
2023-05-22T22:45:28.498Z,46.55
2023-05-22T22:47:56.312Z,40.05
2023-05-22T22:50:24.417Z,39.95
2023-05-22T22:52:51.109Z,45.03
2023-05-22T22:55:18.174Z,43.67
2023-05-22T22:57:46.994Z,32.38
2023-05-22T23:00:13.957Z,43.78
2023-05-22T23:02:40.510Z,38.28
2023-05-22T23:05:07.770Z,42.13
2023-05-22T23:07:34.613Z,39.25
2023-05-22T23:10:01.063Z,39.00
2023-05-22T23:12:27.605Z,38.78
2023-05-22T23:14:55.288Z,37.53
2023-05-22T23:17:21.702Z,37.22
2023-05-22T23:19:48.129Z,31.60
2023-05-22T23:22:14.545Z,38.63
2023-05-22T23:24:40.969Z,39.75
2023-05-22T23:27:07.425Z,31.35
2023-05-22T23:29:33.829Z,37.97
2023-05-22T23:32:00.853Z,38.15
2023-05-22T23:34:27.389Z,35.28
2023-05-22T23:36:53.810Z,41.40
2023-05-22T23:39:20.377Z,41.22
2023-05-22T23:41:46.834Z,36.47
2023-05-22T23:44:13.334Z,32.78
2023-05-22T23:46:39.907Z,28.42
2023-05-22T23:49:07.395Z,37.42
2023-05-22T23:51:33.982Z,36.55
2023-05-22T23:54:00.448Z,37.67
2023-05-22T23:56:27.164Z,36.55
2023-05-22T23:58:53.993Z,32.25
